• Join FlightAware (Why Join?)
  • Login
  • US Flag 
03:27AM EDT


 

Airport Tracker/Info


-or-


 

Live Flight TrackerFlight Track Log ✈ ASQ4398 ✈ 11-Apr-2012 ✈ KBTR - KIAH

Flight Track Log - Related Links

Times and Time Zones

All times are in EDT time to prevent confusion due to time zone crossing. See the ASQ4398 flight status page for this flight to view local times or setup timezone preferences in your user account.

Time Position Orientation Groundspeed Altitude Reporting Facility
EDT Latitude Longitude Course Direction KTS MPH feet Rate Location/Type
06:09PM 30.5000 -91.2609 29° Northeast  Level FlightAware Approximate
06:10PM 30.6106 -91.1906 262° West 260 299 3,200  Level Houston Center
06:11PM 30.6006 -91.2728 260° West 267 307 6,500 3,060 Climbing Houston Center
06:12PM 30.5881 -91.3547 272° West 267 307 9,400 2,400 Climbing Houston Center
06:13PM 30.5903 -91.4367 249° West 275 316 11,300 1,800 Climbing Houston Center
06:14PM 30.5614 -91.5261 235° Southwest 281 323 13,100 1,560 Climbing Houston Center
06:15PM 30.5092 -91.6128 236° Southwest 297 342 14,500 1,680 Climbing Houston Center
06:16PM 30.4506 -91.7142 218° Southwest 318 366 16,500 1,740 Climbing Houston Center
06:17PM 30.3817 -91.7767 208° Southwest 348 400 18,000 1,920 Climbing Houston Center
06:18PM 30.2961 -91.8294 213° Southwest 353 406 20,400 1,980 Climbing Houston Center
06:19PM 30.2064 -91.8967 236° Southwest 353 406 22,000 780 Climbing Houston Center
06:20PM 30.1456 -91.9997 235° Southwest 357 411 22,000  Level Houston Center
06:21PM 30.0825 -92.1053 234° Southwest 389 448 22,000  Level Houston Center
06:22PM 30.0111 -92.2200 234° Southwest 418 481 22,000 -60 Level Houston Center
06:23PM 29.9417 -92.3322 235° Southwest 431 496 21,900  Descending Houston Center
06:24PM 29.8744 -92.4444 234° Southwest 436 502 22,000  Climbing Houston Center
06:25PM 29.8047 -92.5564 236° Southwest 441 507 22,000  Level Houston Center
06:26PM 29.7372 -92.6706 234° Southwest 441 507 22,000  Level Houston Center
06:27PM 29.6672 -92.7822 235° Southwest 441 507 22,000  Level Houston Center
06:28PM 29.5975 -92.8964 235° Southwest 441 507 22,000  Level Houston Center
06:29PM 29.5275 -93.0100 249° West 446 513 22,000  Level Houston Center
06:30PM 29.4864 -93.1336 271° West 420 483 22,000  Level Houston Center
06:31PM 29.4872 -93.2481 274° West 403 464 22,000  Level Houston Center
06:32PM 29.4942 -93.3794 272° West 403 464 22,000  Level Houston Center
06:33PM 29.4986 -93.5133 273° West 408 470 22,000  Level Houston Center
06:34PM 29.5050 -93.6422 272° West 408 470 22,000 -60 Level Houston Center
06:35PM 29.5094 -93.7736 273° West 413 475 21,900 -1,080 Descending Houston Center
06:36PM 29.5158 -93.9003 273° West 413 475 19,900 -2,220 Descending Houston Center
06:37PM 29.5219 -94.0269 272° West 407 468 17,500 -2,460 Descending Houston Center
06:38PM 29.5261 -94.1511 274° West 401 461 15,000 -2,280 Descending Houston Center
06:39PM 29.5322 -94.2636 271° West 382 440 13,000 -1,320 Descending Houston Center
06:39PM 29.5331 -94.3350 292° West 318 366 13,000 -660 Level Houston Center
06:40PM 29.5644 -94.4267 300° West 332 382 12,100 -900 Descending Houston Center
06:41PM 29.5825 -94.4631 298° West 327 376 11,700 -960 Descending Houston Center
06:42PM 29.6244 -94.5550 293° West 327 376 10,700 -1,080 Descending Houston Center
06:42PM 29.6461 -94.6128 299° West 330 380 10,100 -1,020 Descending Houston Center
06:43PM 29.6622 -94.6467 293° West 327 376 9,700 -1,020 Descending Houston Center
06:44PM 29.6858 -94.7097 297° West 273 314 9,000 -1,140 Descending Houston Center
06:45PM 29.7194 -94.7872 296° West 276 318 7,900 -1,080 Descending Houston Center
06:46PM 29.7553 -94.8719 295° West 279 321 6,900 -960 Descending Houston Center
06:47PM 29.7886 -94.9544 297° West 272 313 6,000 -480 Descending Houston Center
06:48PM 29.8222 -95.0297 296° West 267 307 6,000  Level Houston Center
06:49PM 29.8519 -95.1000 294° West 270 311 6,000  Level Houston Center
06:50PM 29.8833 -95.1800 283° West 248 285 6,000  Level Houston Center
06:51PM 29.8981 -95.2525 270° West 238 274 6,000  Level Houston Center
06:52PM 29.8981 -95.3292 270° West 233 268 6,000  Level Houston Center
06:53PM 29.8981 -95.4008 270° West 236 272 6,000 -120 Level Houston Center
06:54PM 29.8978 -95.4847 271° West 244 281 5,800 -840 Descending Houston Center
06:55PM 29.8994 -95.5736 317° Northwest 237 273 4,200 -900 Descending Houston Center
06:56PM 29.9339 -95.6108 46° Northeast 225 259 4,000 -600 Descending Houston Center
06:57PM 29.9772 -95.5597 75° East 227 261 3,100 -840 Descending Houston Center
06:58PM 29.9914 -95.4978 88° East 214 246 2,400 -840 Descending Houston Center
06:59PM 29.9931 -95.4381 88° East 203 234 1,500 -1,020 Descending Houston Center